IAH weather

George Bush Intercontinental Houston Airport
Houston, Texas, United States

Public forecast

Using degrees Fahrenheit for public forecast. Weather courtesy of forecast.io.

METAR (pilot weather report)

Retrieved 2017/05/24 23:53 UTC (1 hour ago):

KIAH 242353Z 34010KT 10SM CLR 28/07 A2972 RMK AO2 SLP065 T02780072 10289 20261 56013

TAF (pilot weather forecast)

Forecast is more than 12 hours old.

Retrieved 2017/05/24 00:28 UTC (1 day ago):

TAF KIAH 242326Z 2500/2606 29009KT P6SM FEW070 FM250200 VRB04KT P6SM SKC FM251400 19010KT P6SM SKC FM251800 18014G24KT P6SM SKC FM260100 17012KT P6SM SKC